Time;durP1;ratioP1;P1;durP2;ratioP2;P2;SDS_P1;SDS_P2;PMS_P1;PMS_P2;Temp;Humidity;BMP_temperature;BMP_pressure;BME280_temperature;BME280_humidity;BME280_pressure;Samples;Min_cycle;Max_cycle;Signal;HPM_P1;HPM_P2
2022/06/08 00:01:55;;;;;;;;;9.75;9.75;;;;;24.70;41.57;100457.28;146615;563;46016;-77
2022/06/08 00:04:47;;;;;;;;;7.50;7.50;;;;;24.64;41.64;100458.28;146614;594;46020;-81
2022/06/08 00:07:40;;;;;;;;;11.25;11.00;;;;;24.66;42.91;100455.59;146608;698;46014;-81
2022/06/08 00:10:32;;;;;;;;;13.00;11.50;;;;;24.66;42.63;100451.16;146613;564;46020;-80
2022/06/08 00:13:25;;;;;;;;;10.00;10.00;;;;;24.69;43.30;100455.56;146613;581;46017;-82
2022/06/08 00:16:17;;;;;;;;;8.25;7.50;;;;;24.71;41.55;100455.56;146618;717;45918;-82
2022/06/08 00:19:10;;;;;;;;;10.50;10.25;;;;;24.74;42.22;100458.16;146613;625;46017;-84
2022/06/08 00:22:02;;;;;;;;;13.50;13.00;;;;;24.69;41.23;100437.00;146611;599;46021;-85
2022/06/08 00:24:55;;;;;;;;;12.50;10.75;;;;;24.65;39.70;100440.59;146616;563;46012;-81
2022/06/08 00:27:47;;;;;;;;;14.00;11.25;;;;;24.64;40.91;100437.06;146613;570;46020;-83
2022/06/08 00:30:40;;;;;;;;;13.75;12.00;;;;;24.62;41.17;100441.50;146613;731;46016;-83
2022/06/08 00:33:32;;;;;;;;;12.00;12.00;;;;;24.61;40.81;100441.50;146613;617;46020;-77
2022/06/08 00:36:25;;;;;;;;;12.75;11.75;;;;;24.61;41.76;100426.50;146613;648;46012;-77
2022/06/08 00:39:17;;;;;;;;;12.00;10.75;;;;;24.64;41.06;100431.75;146613;595;46020;-77
2022/06/08 00:42:15;;;;;;;;;9.25;8.75;;;;;24.64;41.75;100434.41;146608;598;47016;-79
2022/06/08 00:45:19;;;;;;;;;10.50;8.50;;;;;24.62;41.46;100430.88;146618;628;45020;-82
2022/06/08 00:48:11;;;;;;;;;12.00;9.50;;;;;24.62;42.04;100433.53;146613;608;46016;-85
2022/06/08 00:51:03;;;;;;;;;11.50;11.25;;;;;24.64;40.50;100426.47;146611;604;46020;-81
2022/06/08 00:54:05;;;;;;;;;11.50;11.00;;;;;24.68;42.35;100431.72;146612;730;46016;-80
2022/06/08 00:57:04;;;;;;;;;11.00;10.00;;;;;23.82;42.60;100285.09;146617;577;46021;-80
2022/06/08 01:00:05;;;;;;;;;12.25;12.25;;;;;24.71;42.95;100429.91;146612;570;46014;-82
2022/06/08 01:02:57;;;;;;;;;10.50;9.75;;;;;24.74;42.11;100419.28;146618;647;45049;-73
2022/06/08 01:06:01;;;;;;;;;12.00;11.50;;;;;24.78;43.07;100425.41;146609;575;46914;-72
2022/06/08 01:08:57;;;;;;;;;11.50;10.25;;;;;24.81;42.97;100422.72;146615;592;46014;-74
2022/06/08 01:11:51;;;;;;;;;12.00;11.75;;;;;24.85;43.24;100429.72;146606;592;46016;-70
2022/06/08 01:14:43;;;;;;;;;12.00;11.00;;;;;24.89;42.76;100434.09;146614;565;46010;-70
2022/06/08 01:17:35;;;;;;;;;11.50;11.00;;;;;24.94;42.27;100437.59;146612;690;46014;-70
2022/06/08 01:20:27;;;;;;;;;11.75;11.75;;;;;24.93;40.93;100432.31;146614;599;46011;-71
2022/06/08 01:23:20;;;;;;;;;10.50;10.25;;;;;24.93;42.41;100432.31;146613;665;46012;-71
2022/06/08 01:26:34;;;;;;;;;9.25;9.25;;;;;24.93;42.38;100432.31;146620;658;45020;-71
2022/06/08 01:29:35;;;;;;;;;10.00;10.00;;;;;24.90;41.76;100435.88;146615;594;46016;-71
2022/06/08 01:33:19;;;;;;;;;13.50;12.00;;;;;24.92;42.69;100433.19;146615;616;45020;-79
2022/06/08 01:36:35;;;;;;;;;12.00;12.00;;;;;24.89;42.01;100418.19;146608;582;46016;-80
2022/06/08 01:40:08;;;;;;;;;15.00;11.25;;;;;24.89;42.26;100416.44;146617;683;46010;-79
2022/06/08 01:43:48;;;;;;;;;12.00;12.00;;;;;24.85;42.41;100417.34;146611;582;46014;-78
2022/06/08 01:47:16;;;;;;;;;10.75;10.25;;;;;24.36;41.02;100329.53;146614;699;45022;-69
2022/06/08 01:50:24;;;;;;;;;12.50;12.50;;;;;24.74;42.01;100408.66;146609;577;46012;-70
2022/06/08 01:53:49;;;;;;;;;13.50;13.00;;;;;24.69;42.04;100401.66;146611;566;46020;-69
2022/06/08 01:57:27;;;;;;;;;14.50;12.00;;;;;23.50;41.21;100209.50;146613;577;46016;-81
2022/06/08 02:00:24;;;;;;;;;14.50;13.00;;;;;24.62;40.43;100417.63;146612;644;46010;-71
2022/06/08 02:03:48;;;;;;;;;14.25;12.00;;;;;23.52;43.02;100228.03;146608;655;46017;-70
2022/06/08 02:07:19;;;;;;;;;10.75;10.25;;;;;24.62;42.24;100428.22;146611;574;46014;-70
2022/06/08 02:10:40;;;;;;;;;13.50;12.75;;;;;24.69;42.31;100433.47;146609;582;45018;-72
2022/06/08 02:13:48;;;;;;;;;12.25;12.25;;;;;24.68;42.08;100437.03;146609;588;46020;-72
2022/06/08 02:16:53;;;;;;;;;13.50;13.50;;;;;24.70;41.94;100436.09;146607;575;46016;-71
2022/06/08 02:20:01;;;;;;;;;12.75;12.25;;;;;24.71;40.73;100429.03;146615;572;45021;-71
2022/06/08 02:23:08;;;;;;;;;12.75;11.75;;;;;24.71;41.71;100421.97;146612;597;46016;-72
2022/06/08 02:26:13;;;;;;;;;13.75;13.25;;;;;24.72;41.77;100429.00;146608;572;46021;-74
2022/06/08 02:29:19;;;;;;;;;14.50;13.50;;;;;24.77;42.80;100424.53;146607;578;46016;-85
2022/06/08 02:35:37;;;;;;;;;16.25;15.00;;;;;24.79;42.44;100405.94;146611;616;46016;-74
2022/06/08 02:38:36;;;;;;;;;14.00;13.00;;;;;24.82;41.60;100420.03;146609;607;46020;-74
2022/06/08 02:41:30;;;;;;;;;13.50;13.50;;;;;24.78;41.47;100409.50;146610;619;46017;-80
2022/06/08 02:44:28;;;;;;;;;15.75;13.75;;;;;24.75;41.55;100412.19;146613;713;45020;-80
2022/06/08 02:47:35;;;;;;;;;9.50;9.50;;;;;24.73;41.35;100417.50;146617;637;46016;-79
2022/06/08 02:50:29;;;;;;;;;11.00;11.00;;;;;24.75;41.41;100457.25;146616;654;46021;-79
2022/06/08 02:53:45;;;;;;;;;13.50;13.00;;;;;23.65;42.11;100234.06;146611;658;46016;-78
2022/06/08 02:57:12;;;;;;;;;11.00;11.00;;;;;24.75;42.33;100425.44;146613;565;45021;-78
2022/06/08 03:00:15;;;;;;;;;15.00;14.00;;;;;24.77;42.55;100437.78;146609;587;46016;-77
2022/06/08 03:03:14;;;;;;;;;11.00;11.00;;;;;24.82;42.65;100445.69;146610;572;46020;-77
2022/06/08 03:06:19;;;;;;;;;10.75;10.00;;;;;24.85;42.38;100440.34;146606;655;46016;-75
2022/06/08 03:09:16;;;;;;;;;13.75;11.75;;;;;24.87;42.16;100443.87;146613;665;46020;-75
2022/06/08 03:12:19;;;;;;;;;11.75;11.00;;;;;24.91;42.82;100456.19;146609;666;46017;-78
2022/06/08 03:15:13;;;;;;;;;12.00;11.00;;;;;24.93;42.49;100440.28;146614;586;46020;-76
2022/06/08 03:18:06;;;;;;;;;9.50;8.50;;;;;24.96;42.70;100441.09;146615;574;46017;-77
2022/06/08 03:20:59;;;;;;;;;12.00;11.00;;;;;24.98;41.94;100438.41;146618;564;46010;-75
2022/06/08 03:23:51;;;;;;;;;10.00;9.75;;;;;24.94;41.15;100440.22;146618;611;45016;-75
2022/06/08 03:26:51;;;;;;;;;12.25;11.50;;;;;24.93;42.09;100442.91;146617;715;46021;-76
2022/06/08 03:29:44;;;;;;;;;9.25;9.25;;;;;24.89;41.45;100434.09;146616;563;46016;-72
2022/06/08 03:32:37;;;;;;;;;13.00;11.00;;;;;24.90;41.84;100433.22;146618;662;45020;-77
2022/06/08 03:35:29;;;;;;;;;10.00;10.00;;;;;24.87;41.42;100434.13;146608;656;46012;-76
2022/06/08 03:38:21;;;;;;;;;12.25;12.00;;;;;24.83;41.40;100435.06;146615;633;46020;-79
2022/06/08 03:41:14;;;;;;;;;10.75;10.25;;;;;24.80;41.87;100432.47;146610;587;46014;-77
2022/06/08 03:44:07;;;;;;;;;12.50;11.50;;;;;24.82;41.92;100432.41;146617;614;45020;-77
2022/06/08 03:47:08;;;;;;;;;13.75;12.25;;;;;24.33;42.20;100348.13;146609;593;46016;-76
2022/06/08 03:50:04;;;;;;;;;10.00;10.00;;;;;24.84;42.41;100417.38;146616;575;46010;-80
2022/06/08 03:53:03;;;;;;;;;10.50;10.50;;;;;24.87;41.64;100418.22;146612;581;47012;-81
2022/06/08 03:55:57;;;;;;;;;13.75;11.75;;;;;24.90;42.32;100419.97;146618;628;46010;-82
2022/06/08 03:58:50;;;;;;;;;11.00;11.00;;;;;24.93;42.35;100427.88;146610;674;46016;-81
2022/06/08 04:01:43;;;;;;;;;11.00;9.50;;;;;24.98;42.72;100412.75;146617;596;46020;-78
2022/06/08 04:04:35;;;;;;;;;10.25;9.25;;;;;25.05;42.58;100417.13;146614;565;46012;-78
2022/06/08 04:07:27;;;;;;;;;12.00;11.00;;;;;25.15;42.43;100412.59;146615;574;45031;-80
2022/06/08 04:10:19;;;;;;;;;10.50;9.50;;;;;25.27;42.98;100399.16;146614;641;46016;-80
2022/06/08 04:13:12;;;;;;;;;8.25;8.25;;;;;25.44;42.62;100396.25;146618;659;45020;-80
2022/06/08 04:16:04;;;;;;;;;8.25;6.50;;;;;25.62;42.22;100400.41;146612;649;46016;-87
2022/06/08 04:18:56;;;;;;;;;8.75;8.75;;;;;25.76;42.52;100405.47;146615;668;46021;-80
2022/06/08 04:21:50;;;;;;;;;9.00;9.00;;;;;25.89;41.99;100404.44;146615;571;46012;-82
2022/06/08 04:24:42;;;;;;;;;9.25;9.25;;;;;25.98;41.96;100411.34;146618;579;46021;-80
2022/06/08 04:27:34;;;;;;;;;12.25;10.75;;;;;26.08;42.84;100410.31;146614;660;46012;-86
2022/06/08 04:30:27;;;;;;;;;9.75;8.25;;;;;26.12;42.65;100419.97;146615;719;46020;-80
2022/06/08 04:33:19;;;;;;;;;11.75;8.00;;;;;26.13;42.76;100419.06;146611;570;46017;-80
2022/06/08 04:36:11;;;;;;;;;10.00;10.00;;;;;26.15;43.50;100425.22;146617;696;46020;-82
2022/06/08 04:39:04;;;;;;;;;9.75;8.75;;;;;26.13;44.56;100421.72;146615;660;46015;-79
2022/06/08 04:41:56;;;;;;;;;11.00;8.50;;;;;26.16;45.61;100424.31;146616;599;46020;-79
2022/06/08 04:44:49;;;;;;;;;11.00;10.25;;;;;26.19;45.80;100426.03;146614;571;46016;-82
2022/06/08 04:47:42;;;;;;;;;8.75;8.75;;;;;26.23;45.58;100433.94;146620;701;46021;-77
2022/06/08 04:50:35;;;;;;;;;9.75;9.00;;;;;26.31;46.04;100436.47;146612;647;46016;-77
2022/06/08 04:53:27;;;;;;;;;10.00;9.75;;;;;26.40;44.70;100449.59;146610;599;46021;-78
2022/06/08 04:56:20;;;;;;;;;11.75;10.75;;;;;26.45;45.24;100447.72;146612;650;46012;-77
2022/06/08 04:59:12;;;;;;;;;11.25;11.25;;;;;26.47;44.43;100448.56;146614;599;46020;-77
2022/06/08 05:02:04;;;;;;;;;10.00;9.25;;;;;26.40;44.28;100446.94;146610;688;46017;-82
2022/06/08 05:04:57;;;;;;;;;9.25;9.00;;;;;26.30;44.96;100442.69;146614;667;46020;-83
2022/06/08 05:07:55;;;;;;;;;10.75;10.75;;;;;26.26;44.86;100448.94;146605;576;46015;-84
2022/06/08 05:14:40;;;;;;;;;10.25;10.25;;;;;26.45;47.04;100454.84;146612;609;46027;-79
2022/06/08 05:17:50;;;;;;;;;10.00;9.75;;;;;26.59;46.37;100451.94;146616;606;45021;-79
2022/06/08 05:20:44;;;;;;;;;10.75;10.25;;;;;26.64;46.78;100453.59;146607;680;47014;-79
2022/06/08 05:23:54;;;;;;;;;9.50;9.50;;;;;26.60;45.55;100459.88;146609;572;47020;-78
2022/06/08 05:26:55;;;;;;;;;8.25;7.25;;;;;26.55;45.67;100464.41;146614;713;46016;-79
2022/06/08 05:33:41;;;;;;;;;8.25;7.25;;;;;26.35;47.15;100466.50;146613;616;46016;-83
2022/06/08 05:36:54;;;;;;;;;8.25;8.25;;;;;26.33;46.43;100468.34;146617;647;46020;-80
2022/06/08 05:43:46;;;;;;;;;9.75;9.75;;;;;26.35;47.92;100467.37;146611;653;46022;-81
2022/06/08 05:46:54;;;;;;;;;10.00;9.50;;;;;26.28;46.74;100471.06;146616;564;47012;-80
2022/06/08 05:49:56;;;;;;;;;11.00;9.75;;;;;26.29;47.79;100474.59;146609;700;46020;-75
2022/06/08 05:52:55;;;;;;;;;10.50;10.50;;;;;26.30;47.86;100471.94;146610;611;47013;-80
2022/06/08 05:55:55;;;;;;;;;8.50;8.50;;;;;26.33;47.50;100473.66;146615;575;47010;-84
2022/06/08 05:58:54;;;;;;;;;12.00;12.00;;;;;26.42;48.40;100479.69;146610;569;47012;-84
2022/06/08 06:01:55;;;;;;;;;54.25;40.75;;;;;26.55;47.36;100480.38;146613;587;46010;-81
2022/06/08 06:08:52;;;;;;;;;13.25;12.25;;;;;26.94;47.99;100469.84;146611;612;46023;-82
2022/06/08 06:11:54;;;;;;;;;13.00;12.00;;;;;27.15;46.73;100468.56;146613;580;46010;-83
2022/06/08 06:14:56;;;;;;;;;11.25;9.50;;;;;27.35;47.05;100465.47;146608;588;46020;-83
2022/06/08 06:21:53;;;;;;;;;10.25;10.00;;;;;27.58;45.67;100462.31;146615;692;47020;-83
2022/06/08 06:24:54;;;;;;;;;12.00;10.25;;;;;27.47;45.66;100465.19;146613;651;47016;-81
2022/06/08 06:27:56;;;;;;;;;13.00;11.50;;;;;27.42;45.82;100467.13;146613;563;46020;-82
2022/06/08 06:30:55;;;;;;;;;8.00;8.00;;;;;27.42;46.84;100467.13;146617;606;46013;-80
2022/06/08 06:33:56;;;;;;;;;8.75;8.00;;;;;27.47;46.66;100467.00;146609;605;46020;-84
2022/06/08 06:36:55;;;;;;;;;11.25;10.00;;;;;27.56;46.27;100466.78;146610;569;46012;-77
2022/06/08 06:43:40;;;;;;;;;9.75;9.75;;;;;27.60;46.66;100473.78;146614;565;46016;-76
2022/06/08 06:46:54;;;;;;;;;10.75;10.00;;;;;27.58;47.22;100475.62;146614;632;47014;-81
2022/06/08 06:49:56;;;;;;;;;10.00;10.00;;;;;27.59;46.31;100480.03;146608;564;46016;-82
2022/06/08 06:52:55;;;;;;;;;7.75;7.75;;;;;26.74;45.95;100345.25;146616;606;47021;-78
2022/06/08 06:59:52;;;;;;;;;11.00;10.00;;;;;27.73;46.44;100483.28;146615;590;46021;-79
2022/06/08 07:02:54;;;;;;;;;6.25;6.25;;;;;27.80;46.01;100476.91;146617;609;46012;-80
2022/06/08 07:05:55;;;;;;;;;9.50;9.00;;;;;27.86;45.88;100478.56;146609;576;46010;-83
2022/06/08 07:12:53;;;;;;;;;8.75;8.75;;;;;27.73;46.74;100483.28;146617;673;46022;-81
2022/06/08 07:15:54;;;;;;;;;10.25;10.25;;;;;27.80;45.78;100470.72;146611;654;46017;-81
2022/06/08 07:18:55;;;;;;;;;9.00;9.00;;;;;27.81;45.50;100472.47;146610;733;46020;-82
2022/06/08 07:29:40;;;;;;;;;8.75;8.75;;;;;27.94;45.94;100467.69;146608;592;46017;-74
2022/06/08 07:32:50;;;;;;;;;10.50;10.50;;;;;28.07;45.80;100466.50;146609;605;46020;-77
2022/06/08 07:35:43;;;;;;;;;11.00;9.75;;;;;27.19;45.58;100331.84;146613;631;47016;-82
2022/06/08 07:38:53;;;;;;;;;11.00;9.00;;;;;27.95;45.57;100472.13;146617;682;46020;-72
2022/06/08 07:41:55;;;;;;;;;11.00;10.75;;;;;27.98;44.97;100470.28;146614;586;46016;-78
2022/06/08 07:51:53;;;;;;;;;9.00;8.00;;;;;28.02;45.12;100476.41;146617;639;47015;-81
2022/06/08 07:54:56;;;;;;;;;8.75;8.75;;;;;27.92;45.30;100475.75;146631;698;46014;-79
2022/06/08 07:57:54;;;;;;;;;10.50;10.25;;;;;27.91;45.22;100476.63;146633;578;46010;-80
2022/06/08 08:00:57;;;;;;;;;9.25;9.25;;;;;28.10;45.25;100477.09;146633;569;46012;-75
2022/06/08 08:03:55;;;;;;;;;8.00;8.00;;;;;28.28;44.10;100465.94;146631;579;46010;-77
2022/06/08 08:06:56;;;;;;;;;6.75;6.25;;;;;28.42;44.37;100462.97;146636;609;46012;-85
2022/06/08 08:13:55;;;;;;;;;9.33;8.00;;;;;28.56;44.23;100462.56;146637;623;45016;-82
2022/06/08 08:20:40;;;;;;;;;7.00;6.67;;;;;28.88;43.99;100472.38;146635;577;45016;-85
2022/06/08 08:23:54;;;;;;;;;7.67;7.00;;;;;29.05;44.20;100469.25;146636;687;46010;-85
2022/06/08 08:26:56;;;;;;;;;10.50;9.50;;;;;29.15;42.71;100460.03;146630;670;46010;-77
2022/06/08 08:33:41;;;;;;;;;8.67;8.67;;;;;28.92;42.60;100474.03;146628;637;46016;-87
2022/06/08 08:36:54;;;;;;;;;6.67;6.67;;;;;28.80;42.46;100463.69;146636;670;45021;-85
2022/06/08 08:39:58;;;;;;;;;9.25;8.25;;;;;28.73;42.95;100462.12;146635;576;45912;-87
2022/06/08 08:42:53;;;;;;;;;7.00;7.00;;;;;28.76;43.50;100460.25;146635;578;46010;-86
2022/06/08 08:46:37;;;;;;;;;8.00;8.00;;;;;28.85;43.39;100447.53;146632;617;47012;-85
2022/06/08 08:50:13;;;;;;;;;9.00;8.00;;;;;28.92;42.28;100450.00;146638;584;45020;-86
2022/06/08 08:53:52;;;;;;;;;8.00;7.00;;;;;27.82;42.84;100264.63;146626;577;46012;-85
2022/06/08 08:57:50;;;;;;;;;8.00;7.00;;;;;28.82;43.31;100447.63;146614;660;47020;-85
2022/06/08 09:00:57;;;;;;;;;8.00;8.00;;;;;28.84;43.11;100444.00;146616;597;46012;-84
2022/06/08 09:04:19;;;;;;;;;7.25;7.25;;;;;28.83;42.61;100444.06;146618;720;46010;-85
2022/06/08 09:07:21;;;;;;;;;8.00;8.00;;;;;28.83;42.66;100452.06;146613;645;46017;-85
2022/06/08 09:10:50;;;;;;;;;9.50;9.50;;;;;28.95;42.47;100441.03;146611;571;46010;-86
2022/06/08 09:13:57;;;;;;;;;7.25;7.25;;;;;29.08;41.97;100442.47;146613;623;47013;-85
2022/06/08 09:17:12;;;;;;;;;14.75;10.50;;;;;29.19;41.66;100443.03;146611;612;46020;-78
2022/06/08 09:20:08;;;;;;;;;10.50;9.50;;;;;29.40;40.05;100440.59;146611;565;46015;-82
2022/06/08 09:23:02;;;;;;;;;7.00;7.00;;;;;29.58;40.46;100439.16;146619;570;47021;-83
2022/06/08 09:26:17;;;;;;;;;10.00;9.50;;;;;29.57;40.64;100432.94;146615;624;46016;-84
2022/06/08 09:29:35;;;;;;;;;10.00;9.75;;;;;29.56;40.94;100439.19;146617;638;46010;-83
2022/06/08 09:32:34;;;;;;;;;8.00;8.00;;;;;29.65;39.78;100433.59;146619;563;45038;-83
2022/06/08 09:35:42;;;;;;;;;9.67;8.00;;;;;29.78;39.03;100438.53;146617;617;46010;-86
2022/06/08 09:38:40;;;;;;;;;10.50;10.00;;;;;29.91;40.05;100440.78;146613;595;46016;-84
2022/06/08 09:41:54;;;;;;;;;9.25;7.50;;;;;29.91;39.64;100415.84;146619;597;46010;-84
2022/06/08 09:45:16;;;;;;;;;10.75;9.75;;;;;29.86;40.30;100441.84;146614;695;46019;-84
2022/06/08 09:52:41;;;;;;;;;10.00;9.00;;;;;28.52;41.67;100253.75;146614;576;46017;-84
2022/06/08 09:56:08;;;;;;;;;10.50;9.50;;;;;29.44;39.88;100429.78;146640;662;45010;-83
2022/06/08 09:59:31;;;;;;;;;9.00;7.50;;;;;29.42;39.63;100431.62;146635;732;45017;-85
2022/06/08 10:02:35;;;;;;;;;6.50;6.50;;;;;29.47;38.01;100426.13;146639;633;45010;-84
2022/06/08 10:06:13;;;;;;;;;9.50;8.25;;;;;28.54;39.28;100254.59;146636;703;45016;-83
2022/06/08 10:09:50;;;;;;;;;9.00;9.00;;;;;29.85;39.40;100419.59;146640;647;45010;-86
2022/06/08 10:13:05;;;;;;;;;7.50;7.50;;;;;30.07;39.96;100422.41;146636;608;45013;-87
2022/06/08 10:16:16;;;;;;;;;9.75;9.00;;;;;30.23;39.27;100425.47;146637;564;45020;-84
2022/06/08 10:19:14;;;;;;;;;8.00;8.00;;;;;30.27;38.71;100418.19;146637;569;45028;-84
2022/06/08 10:22:08;;;;;;;;;9.50;9.00;;;;;30.38;38.58;100418.72;146638;569;45011;-84
2022/06/08 10:25:29;;;;;;;;;7.75;7.75;;;;;30.53;39.30;100419.94;146635;629;45931;-84
2022/06/08 10:28:47;;;;;;;;;10.00;10.00;;;;;30.60;39.18;100414.31;146638;574;45010;-85
2022/06/08 10:32:11;;;;;;;;;8.75;8.75;;;;;30.13;38.30;100328.63;146631;619;45914;-84
2022/06/08 10:35:17;;;;;;;;;8.00;8.00;;;;;30.67;38.12;100408.75;146638;634;45021;-83
2022/06/08 10:38:11;;;;;;;;;8.75;8.75;;;;;30.64;36.69;100399.03;146638;578;45925;-86
2022/06/08 10:45:00;;;;;;;;;9.50;7.00;;;;;29.84;39.08;100275.31;146637;566;45014;-86
2022/06/08 10:48:02;;;;;;;;;8.25;8.25;;;;;30.44;39.57;100406.87;146636;703;45020;-82
2022/06/08 10:51:35;;;;;;;;;9.25;9.00;;;;;30.35;39.86;100392.94;146637;690;46012;-85
2022/06/08 10:54:57;;;;;;;;;5.50;5.50;;;;;30.26;40.36;100382.56;146630;675;45010;-83
2022/06/08 10:58:14;;;;;;;;;4.25;4.00;;;;;30.22;40.79;100380.03;146626;627;46015;-85
2022/06/08 11:01:10;;;;;;;;;9.00;9.00;;;;;30.22;40.86;100372.91;146628;574;46010;-83
2022/06/08 11:04:06;;;;;;;;;9.00;9.00;;;;;30.21;40.79;100373.81;146626;742;45916;-82
2022/06/08 11:07:27;;;;;;;;;9.25;8.00;;;;;30.21;41.00;100372.94;146630;652;45020;-83
2022/06/08 11:11:08;;;;;;;;;8.75;8.00;;;;;29.26;39.81;100222.06;146629;716;45012;-84
2022/06/08 11:14:00;;;;;;;;;7.50;7.50;;;;;30.13;40.19;100375.87;146631;688;45020;-79
2022/06/08 11:16:53;;;;;;;;;9.75;9.00;;;;;30.09;40.58;100379.56;146624;723;45016;-83
2022/06/08 11:19:46;;;;;;;;;8.25;8.25;;;;;29.93;41.12;100381.91;146627;566;45020;-83
2022/06/08 11:22:45;;;;;;;;;8.25;8.25;;;;;29.72;41.21;100385.28;146627;723;46012;-82
2022/06/08 11:25:51;;;;;;;;;9.25;9.00;;;;;28.54;41.47;100219.03;146628;627;45020;-83
2022/06/08 11:28:48;;;;;;;;;8.00;8.00;;;;;29.24;42.56;100376.13;146624;576;45014;-82
2022/06/08 11:32:00;;;;;;;;;6.75;6.75;;;;;27.96;42.53;100189.63;146625;618;45020;-82
2022/06/08 11:35:22;;;;;;;;;9.50;9.50;;;;;28.82;44.56;100363.13;146626;670;45018;-82
2022/06/08 11:38:51;;;;;;;;;11.00;9.00;;;;;27.73;45.80;100187.59;146633;621;45010;-81
2022/06/08 11:42:00;;;;;;;;;7.75;6.75;;;;;28.88;46.26;100359.37;146628;637;45012;-85
2022/06/08 11:45:03;;;;;;;;;9.75;9.75;;;;;28.84;44.80;100357.75;146629;634;45020;-86
2022/06/08 11:48:15;;;;;;;;;10.50;10.50;;;;;28.81;44.46;100365.84;146626;715;46012;-82
2022/06/08 11:51:08;;;;;;;;;9.00;8.50;;;;;28.90;44.07;100350.41;146630;564;45010;-86
2022/06/08 11:54:03;;;;;;;;;9.75;8.50;;;;;29.02;43.75;100343.00;146621;590;46012;-85
2022/06/08 11:57:23;;;;;;;;;9.00;9.00;;;;;28.66;44.58;100252.44;146621;608;45021;-84
2022/06/08 12:00:41;;;;;;;;;9.00;8.00;;;;;29.37;43.97;100353.44;146619;610;46012;-84
2022/06/08 12:03:49;;;;;;;;;7.75;7.75;;;;;29.44;43.74;100354.12;146620;680;46010;-80
2022/06/08 12:06:43;;;;;;;;;8.50;8.25;;;;;29.49;44.16;100359.31;146614;579;46016;-80
2022/06/08 12:09:38;;;;;;;;;8.75;8.75;;;;;29.42;44.19;100351.50;146614;679;46010;-80
2022/06/08 12:12:31;;;;;;;;;10.25;9.25;;;;;29.38;44.83;100354.34;146614;684;46017;-83
2022/06/08 12:15:38;;;;;;;;;11.00;8.50;;;;;29.36;43.96;100345.47;146617;685;46020;-81
2022/06/08 12:19:18;;;;;;;;;10.75;8.00;;;;;28.91;43.38;100263.22;146616;590;46012;-81
2022/06/08 12:22:24;;;;;;;;;6.00;6.00;;;;;29.55;43.12;100346.63;146618;594;46010;-82
2022/06/08 12:25:30;;;;;;;;;7.00;7.00;;;;;29.67;43.17;100348.06;146619;606;46013;-82
2022/06/08 12:28:23;;;;;;;;;8.75;8.75;;;;;29.73;42.57;100347.84;146615;572;46020;-86
2022/06/08 12:31:31;;;;;;;;;8.00;8.00;;;;;29.75;42.36;100345.09;146614;569;46016;-84
2022/06/08 12:34:43;;;;;;;;;7.50;6.75;;;;;29.66;43.19;100339.16;146620;564;46020;-84
2022/06/08 12:37:44;;;;;;;;;7.00;7.00;;;;;29.38;43.53;100339.16;146616;585;46016;-84
2022/06/08 12:40:38;;;;;;;;;9.00;7.00;;;;;28.96;43.82;100336.88;146618;617;46011;-82
2022/06/08 12:43:43;;;;;;;;;8.00;8.00;;;;;28.60;44.34;100329.97;146616;650;46016;-85
2022/06/08 12:46:39;;;;;;;;;7.00;7.00;;;;;28.36;44.54;100339.56;146621;580;45020;-81
2022/06/08 12:49:54;;;;;;;;;8.00;7.00;;;;;28.25;45.35;100331.84;146613;591;46017;-86
2022/06/08 12:52:47;;;;;;;;;5.33;5.00;;;;;28.14;46.05;100339.28;146622;586;46010;-78
2022/06/08 12:55:40;;;;;;;;;5.00;5.00;;;;;28.18;45.19;100332.94;146619;564;45916;-83
2022/06/08 12:58:32;;;;;;;;;6.00;6.00;;;;;28.18;45.46;100311.59;146621;579;46010;-84
2022/06/08 13:01:28;;;;;;;;;4.33;4.33;;;;;28.03;44.61;100307.56;146619;578;46012;-82
2022/06/08 13:04:24;;;;;;;;;6.00;5.33;;;;;27.87;45.41;100313.31;146619;656;46021;-84
2022/06/08 13:07:23;;;;;;;;;7.75;7.75;;;;;27.95;45.41;100302.47;146616;579;46916;-86
2022/06/08 13:10:16;;;;;;;;;2.50;2.00;;;;;27.91;45.66;100286.59;146622;599;46020;-83
2022/06/08 13:13:09;;;;;;;;;2.67;2.00;;;;;27.74;46.31;100300.34;146619;593;46016;-85
2022/06/08 13:16:04;;;;;;;;;6.33;4.33;;;;;27.57;46.08;100317.63;146620;571;46020;-85
2022/06/08 13:18:58;;;;;;;;;8.25;8.25;;;;;27.64;45.62;100295.25;146616;578;46917;-85
2022/06/08 13:21:51;;;;;;;;;5.00;4.00;;;;;27.59;44.93;100288.28;146619;563;46010;-83
2022/06/08 13:24:45;;;;;;;;;5.75;5.75;;;;;27.77;45.29;100313.56;146612;567;47916;-86
2022/06/08 13:27:37;;;;;;;;;6.00;4.75;;;;;27.91;45.42;100311.44;146617;604;46020;-84
2022/06/08 13:30:37;;;;;;;;;5.50;4.00;;;;;28.09;44.62;100310.94;146620;635;46014;-83
2022/06/08 13:37:02;;;;;;;;;5.75;5.75;;;;;28.36;45.21;100329.75;146617;577;46025;-86
2022/06/08 13:39:55;;;;;;;;;8.33;7.00;;;;;28.50;46.17;100330.25;146621;565;45020;-86
2022/06/08 13:42:49;;;;;;;;;5.25;5.25;;;;;28.57;44.75;100341.66;146620;635;45042;-84
2022/06/08 13:45:45;;;;;;;;;9.00;9.00;;;;;28.51;45.07;100334.69;146620;563;45020;-84
2022/06/08 13:48:38;;;;;;;;;7.25;5.25;;;;;28.53;46.83;100345.28;146619;675;46014;-82
2022/06/08 13:51:30;;;;;;;;;5.67;5.67;;;;;28.45;45.93;100334.00;146622;598;45020;-85
2022/06/08 13:54:43;;;;;;;;;6.33;6.33;;;;;28.02;45.54;100330.69;146618;601;46016;-82
2022/06/08 13:57:35;;;;;;;;;5.00;5.00;;;;;27.75;45.42;100334.91;146618;628;45021;-83
2022/06/08 14:00:30;;;;;;;;;7.50;6.50;;;;;27.61;48.61;100329.94;146619;589;46012;-86
2022/06/08 14:03:28;;;;;;;;;5.67;5.67;;;;;27.43;48.78;100332.19;146621;632;45021;-83
2022/06/08 14:13:02;;;;;;;;;6.00;6.00;;;;;26.83;50.17;100331.75;146618;586;46016;-85
2022/06/08 14:15:57;;;;;;;;;4.00;4.00;;;;;26.83;51.02;100309.59;146617;629;46020;-83
2022/06/08 14:18:53;;;;;;;;;10.00;7.75;;;;;26.65;51.35;100309.09;146616;574;46017;-83
2022/06/08 14:21:45;;;;;;;;;6.50;6.25;;;;;26.58;52.82;100312.78;146618;621;46010;-82
2022/06/08 14:24:45;;;;;;;;;5.00;5.00;;;;;26.39;51.71;100283.03;146618;672;46015;-81
2022/06/08 14:27:39;;;;;;;;;5.00;5.00;;;;;26.24;53.41;100288.66;146620;704;45020;-83
2022/06/08 14:30:32;;;;;;;;;7.33;7.33;;;;;26.17;53.38;100285.25;146614;564;46016;-81
2022/06/08 14:33:28;;;;;;;;;8.00;7.00;;;;;26.01;51.96;100257.19;146621;638;46021;-83
2022/06/08 14:36:23;;;;;;;;;6.00;6.00;;;;;26.06;51.34;100270.41;146617;565;46016;-81
2022/06/08 14:39:20;;;;;;;;;7.25;7.00;;;;;26.10;52.09;100290.69;146619;630;46020;-83
2022/06/08 14:42:13;;;;;;;;;6.50;5.75;;;;;25.99;53.61;100298.88;146617;577;46016;-81
2022/06/08 14:45:05;;;;;;;;;6.00;6.00;;;;;25.96;54.50;100315.75;146620;638;46020;-81
2022/06/08 14:47:59;;;;;;;;;7.75;6.50;;;;;25.90;53.37;100299.06;146614;664;46016;-74
2022/06/08 14:50:53;;;;;;;;;9.25;7.50;;;;;25.98;52.61;100310.38;146617;615;46010;-75
2022/06/08 14:53:46;;;;;;;;;6.75;6.75;;;;;26.04;53.49;100315.59;146616;571;46016;-74
2022/06/08 14:56:38;;;;;;;;;4.67;4.67;;;;;26.01;53.67;100311.25;146625;607;45021;-74
2022/06/08 14:59:30;;;;;;;;;7.33;6.33;;;;;25.85;54.93;100314.19;146617;563;45016;-78
2022/06/08 15:02:32;;;;;;;;;3.25;3.25;;;;;25.56;56.05;100318.19;146619;687;46021;-71
2022/06/08 15:05:26;;;;;;;;;5.50;5.00;;;;;25.45;56.46;100298.91;146618;655;45016;-72
2022/06/08 15:08:19;;;;;;;;;5.75;5.75;;;;;25.40;56.19;100309.59;146621;648;46015;-72
2022/06/08 15:14:45;;;;;;;;;5.25;5.00;;;;;25.15;55.91;100322.37;146621;599;46014;-73
2022/06/08 15:17:39;;;;;;;;;7.25;5.25;;;;;25.21;55.21;100319.63;146619;668;46016;-72
2022/06/08 15:20:38;;;;;;;;;6.00;5.25;;;;;25.14;54.16;100325.03;146619;574;46010;-72
2022/06/08 15:23:31;;;;;;;;;7.00;6.00;;;;;25.14;54.68;100307.38;146619;582;46013;-74